sensor_id;sensor_type;location;lat;lon;timestamp;temperature;humidity
17364;DHT22;8799;43.594;13.526;2023-03-23T00:01:04;19.40;99.90
17364;DHT22;8799;43.594;13.526;2023-03-23T00:03:33;19.30;99.90
17364;DHT22;8799;43.594;13.526;2023-03-23T00:06:05;19.40;99.90
17364;DHT22;8799;43.594;13.526;2023-03-23T00:08:35;19.30;99.90
17364;DHT22;8799;43.594;13.526;2023-03-23T00:11:10;19.40;99.90
17364;DHT22;8799;43.594;13.526;2023-03-23T00:13:41;19.40;99.90
17364;DHT22;8799;43.594;13.526;2023-03-23T00:16:10;19.30;99.90
17364;DHT22;8799;43.594;13.526;2023-03-23T00:18:44;19.40;99.90
17364;DHT22;8799;43.594;13.526;2023-03-23T00:21:11;19.40;99.90
17364;DHT22;8799;43.594;13.526;2023-03-23T00:23:40;19.30;99.90
17364;DHT22;8799;43.594;13.526;2023-03-23T00:26:11;19.40;99.90
17364;DHT22;8799;43.594;13.526;2023-03-23T00:28:39;19.40;99.90
17364;DHT22;8799;43.594;13.526;2023-03-23T00:31:12;19.40;99.90
17364;DHT22;8799;43.594;13.526;2023-03-23T00:33:40;19.30;99.90
17364;DHT22;8799;43.594;13.526;2023-03-23T00:36:09;19.30;99.90
17364;DHT22;8799;43.594;13.526;2023-03-23T00:38:40;19.40;99.90
17364;DHT22;8799;43.594;13.526;2023-03-23T00:44:31;19.30;99.90
17364;DHT22;8799;43.594;13.526;2023-03-23T00:47:00;19.30;99.90
17364;DHT22;8799;43.594;13.526;2023-03-23T00:49:28;19.30;99.90
17364;DHT22;8799;43.594;13.526;2023-03-23T00:51:57;19.30;99.90
17364;DHT22;8799;43.594;13.526;2023-03-23T00:54:27;19.30;99.90
17364;DHT22;8799;43.594;13.526;2023-03-23T00:56:55;19.30;99.90
17364;DHT22;8799;43.594;13.526;2023-03-23T00:59:23;19.30;99.90
17364;DHT22;8799;43.594;13.526;2023-03-23T01:01:51;19.30;99.90
17364;DHT22;8799;43.594;13.526;2023-03-23T01:04:19;19.30;99.90
17364;DHT22;8799;43.594;13.526;2023-03-23T01:06:52;19.40;99.90
17364;DHT22;8799;43.594;13.526;2023-03-23T01:09:20;19.30;99.90
17364;DHT22;8799;43.594;13.526;2023-03-23T01:15:15;19.30;99.90
17364;DHT22;8799;43.594;13.526;2023-03-23T01:17:43;19.30;99.90
17364;DHT22;8799;43.594;13.526;2023-03-23T01:20:11;19.30;99.90
17364;DHT22;8799;43.594;13.526;2023-03-23T01:22:39;19.30;99.90
17364;DHT22;8799;43.594;13.526;2023-03-23T01:25:08;19.30;99.90
17364;DHT22;8799;43.594;13.526;2023-03-23T01:27:36;19.30;99.90
17364;DHT22;8799;43.594;13.526;2023-03-23T01:30:06;19.60;99.90
17364;DHT22;8799;43.594;13.526;2023-03-23T01:32:36;19.30;99.90
17364;DHT22;8799;43.594;13.526;2023-03-23T01:35:04;19.30;99.90
17364;DHT22;8799;43.594;13.526;2023-03-23T01:37:33;19.30;99.90
17364;DHT22;8799;43.594;13.526;2023-03-23T01:40:02;19.30;99.90
17364;DHT22;8799;43.594;13.526;2023-03-23T01:42:34;19.30;99.90
17364;DHT22;8799;43.594;13.526;2023-03-23T01:45:27;19.30;99.90
17364;DHT22;8799;43.594;13.526;2023-03-23T01:48:14;19.30;99.90
17364;DHT22;8799;43.594;13.526;2023-03-23T01:50:48;19.30;99.90
17364;DHT22;8799;43.594;13.526;2023-03-23T01:53:18;19.30;99.90
17364;DHT22;8799;43.594;13.526;2023-03-23T01:55:47;19.30;99.90
17364;DHT22;8799;43.594;13.526;2023-03-23T01:58:19;19.30;99.90
17364;DHT22;8799;43.594;13.526;2023-03-23T02:00:52;19.30;99.90
17364;DHT22;8799;43.594;13.526;2023-03-23T02:03:21;19.30;99.90
17364;DHT22;8799;43.594;13.526;2023-03-23T02:05:51;19.30;99.90
17364;DHT22;8799;43.594;13.526;2023-03-23T02:08:19;19.30;99.90
17364;DHT22;8799;43.594;13.526;2023-03-23T02:10:48;19.30;99.90
17364;DHT22;8799;43.594;13.526;2023-03-23T02:13:17;19.30;99.90
17364;DHT22;8799;43.594;13.526;2023-03-23T02:15:51;19.30;99.90
17364;DHT22;8799;43.594;13.526;2023-03-23T02:18:35;19.30;99.90
17364;DHT22;8799;43.594;13.526;2023-03-23T02:24:40;19.30;99.90
17364;DHT22;8799;43.594;13.526;2023-03-23T02:27:14;19.30;99.90
17364;DHT22;8799;43.594;13.526;2023-03-23T02:30:04;19.30;99.90
17364;DHT22;8799;43.594;13.526;2023-03-23T02:32:53;19.30;99.90
17364;DHT22;8799;43.594;13.526;2023-03-23T02:35:29;19.30;99.90
17364;DHT22;8799;43.594;13.526;2023-03-23T02:38:01;19.30;99.90
17364;DHT22;8799;43.594;13.526;2023-03-23T02:40:32;19.30;99.90
17364;DHT22;8799;43.594;13.526;2023-03-23T02:43:07;19.20;99.90
17364;DHT22;8799;43.594;13.526;2023-03-23T02:45:38;19.30;99.90
17364;DHT22;8799;43.594;13.526;2023-03-23T02:48:08;19.30;99.90
17364;DHT22;8799;43.594;13.526;2023-03-23T02:50:40;19.30;99.90
17364;DHT22;8799;43.594;13.526;2023-03-23T02:53:12;19.20;99.90
17364;DHT22;8799;43.594;13.526;2023-03-23T02:55:42;19.20;99.90
17364;DHT22;8799;43.594;13.526;2023-03-23T02:58:11;19.20;99.90
17364;DHT22;8799;43.594;13.526;2023-03-23T03:00:39;19.20;99.90
17364;DHT22;8799;43.594;13.526;2023-03-23T03:03:12;19.20;99.90
17364;DHT22;8799;43.594;13.526;2023-03-23T03:05:48;19.20;99.90
17364;DHT22;8799;43.594;13.526;2023-03-23T03:08:23;19.20;99.90
17364;DHT22;8799;43.594;13.526;2023-03-23T03:10:54;19.20;99.90
17364;DHT22;8799;43.594;13.526;2023-03-23T03:13:32;19.20;99.90
17364;DHT22;8799;43.594;13.526;2023-03-23T03:16:07;19.20;99.90
17364;DHT22;8799;43.594;13.526;2023-03-23T03:18:52;19.20;99.90
17364;DHT22;8799;43.594;13.526;2023-03-23T03:21:27;19.20;99.90
17364;DHT22;8799;43.594;13.526;2023-03-23T03:23:57;19.20;99.90
17364;DHT22;8799;43.594;13.526;2023-03-23T03:26:28;19.20;99.90
17364;DHT22;8799;43.594;13.526;2023-03-23T03:28:57;19.20;99.90
17364;DHT22;8799;43.594;13.526;2023-03-23T03:31:28;19.20;99.90
17364;DHT22;8799;43.594;13.526;2023-03-23T03:33:56;19.20;99.90
17364;DHT22;8799;43.594;13.526;2023-03-23T03:36:31;19.20;99.90
17364;DHT22;8799;43.594;13.526;2023-03-23T03:39:03;19.20;99.90
17364;DHT22;8799;43.594;13.526;2023-03-23T03:41:33;19.20;99.90
17364;DHT22;8799;43.594;13.526;2023-03-23T03:44:02;19.20;99.90
17364;DHT22;8799;43.594;13.526;2023-03-23T03:46:30;19.20;99.90
17364;DHT22;8799;43.594;13.526;2023-03-23T03:48:57;19.20;99.90
17364;DHT22;8799;43.594;13.526;2023-03-23T03:51:28;19.20;99.90
17364;DHT22;8799;43.594;13.526;2023-03-23T03:53:56;19.20;99.90
17364;DHT22;8799;43.594;13.526;2023-03-23T03:56:25;19.20;99.90
17364;DHT22;8799;43.594;13.526;2023-03-23T03:58:53;19.20;99.90
17364;DHT22;8799;43.594;13.526;2023-03-23T04:01:21;19.20;99.90
17364;DHT22;8799;43.594;13.526;2023-03-23T04:03:50;19.10;99.90
17364;DHT22;8799;43.594;13.526;2023-03-23T04:06:19;19.10;99.90
17364;DHT22;8799;43.594;13.526;2023-03-23T04:08:50;19.10;99.90
17364;DHT22;8799;43.594;13.526;2023-03-23T04:11:18;19.10;99.90
17364;DHT22;8799;43.594;13.526;2023-03-23T04:13:46;19.10;99.90
17364;DHT22;8799;43.594;13.526;2023-03-23T04:16:14;19.10;99.90
17364;DHT22;8799;43.594;13.526;2023-03-23T04:18:42;19.10;99.90
17364;DHT22;8799;43.594;13.526;2023-03-23T04:21:10;19.10;99.90
17364;DHT22;8799;43.594;13.526;2023-03-23T04:23:40;19.10;99.90
17364;DHT22;8799;43.594;13.526;2023-03-23T04:26:09;19.10;99.90
17364;DHT22;8799;43.594;13.526;2023-03-23T04:28:38;19.10;99.90
17364;DHT22;8799;43.594;13.526;2023-03-23T04:31:06;19.10;99.90
17364;DHT22;8799;43.594;13.526;2023-03-23T04:33:35;19.10;99.90
17364;DHT22;8799;43.594;13.526;2023-03-23T04:36:04;19.10;99.90
17364;DHT22;8799;43.594;13.526;2023-03-23T04:38:33;19.10;99.90
17364;DHT22;8799;43.594;13.526;2023-03-23T04:41:01;19.10;99.90
17364;DHT22;8799;43.594;13.526;2023-03-23T04:43:31;19.10;99.90
17364;DHT22;8799;43.594;13.526;2023-03-23T04:46:08;19.10;99.90
17364;DHT22;8799;43.594;13.526;2023-03-23T04:48:36;19.00;99.90
17364;DHT22;8799;43.594;13.526;2023-03-23T04:51:05;19.00;99.90
17364;DHT22;8799;43.594;13.526;2023-03-23T04:53:33;19.00;99.90
17364;DHT22;8799;43.594;13.526;2023-03-23T04:56:02;19.00;99.90
17364;DHT22;8799;43.594;13.526;2023-03-23T04:58:32;19.00;99.90
17364;DHT22;8799;43.594;13.526;2023-03-23T05:01:00;19.00;99.90
17364;DHT22;8799;43.594;13.526;2023-03-23T05:03:29;19.00;99.90
17364;DHT22;8799;43.594;13.526;2023-03-23T05:05:57;19.00;99.90
17364;DHT22;8799;43.594;13.526;2023-03-23T05:08:28;19.00;99.90
17364;DHT22;8799;43.594;13.526;2023-03-23T05:10:59;19.00;99.90
17364;DHT22;8799;43.594;13.526;2023-03-23T05:13:28;19.00;99.90
17364;DHT22;8799;43.594;13.526;2023-03-23T05:15:57;19.00;99.90
17364;DHT22;8799;43.594;13.526;2023-03-23T05:18:25;19.00;99.90
17364;DHT22;8799;43.594;13.526;2023-03-23T05:20:53;19.00;99.90
17364;DHT22;8799;43.594;13.526;2023-03-23T05:23:21;19.00;99.90
17364;DHT22;8799;43.594;13.526;2023-03-23T05:25:53;19.00;99.90
17364;DHT22;8799;43.594;13.526;2023-03-23T05:28:21;18.90;99.90
17364;DHT22;8799;43.594;13.526;2023-03-23T05:30:49;19.00;99.90
17364;DHT22;8799;43.594;13.526;2023-03-23T05:33:19;19.00;99.90
17364;DHT22;8799;43.594;13.526;2023-03-23T05:35:47;18.90;99.90
17364;DHT22;8799;43.594;13.526;2023-03-23T05:38:16;18.90;99.90
17364;DHT22;8799;43.594;13.526;2023-03-23T05:40:43;18.90;99.90
17364;DHT22;8799;43.594;13.526;2023-03-23T05:43:12;18.90;99.90
17364;DHT22;8799;43.594;13.526;2023-03-23T05:45:40;18.90;99.90
17364;DHT22;8799;43.594;13.526;2023-03-23T05:48:08;18.90;99.90
17364;DHT22;8799;43.594;13.526;2023-03-23T05:50:38;18.90;99.90
17364;DHT22;8799;43.594;13.526;2023-03-23T05:53:06;18.90;99.90
17364;DHT22;8799;43.594;13.526;2023-03-23T05:55:34;18.90;99.90
17364;DHT22;8799;43.594;13.526;2023-03-23T05:58:02;18.90;99.90
17364;DHT22;8799;43.594;13.526;2023-03-23T06:00:30;18.90;99.90
17364;DHT22;8799;43.594;13.526;2023-03-23T06:02:58;18.90;99.90
17364;DHT22;8799;43.594;13.526;2023-03-23T06:05:26;18.90;99.90
17364;DHT22;8799;43.594;13.526;2023-03-23T06:07:56;18.90;99.90
17364;DHT22;8799;43.594;13.526;2023-03-23T06:10:24;18.80;99.90
17364;DHT22;8799;43.594;13.526;2023-03-23T06:12:52;18.90;99.90
17364;DHT22;8799;43.594;13.526;2023-03-23T06:15:20;18.90;99.90
17364;DHT22;8799;43.594;13.526;2023-03-23T06:17:48;18.90;99.90
17364;DHT22;8799;43.594;13.526;2023-03-23T06:20:16;18.90;99.90
17364;DHT22;8799;43.594;13.526;2023-03-23T06:22:44;18.90;99.90
17364;DHT22;8799;43.594;13.526;2023-03-23T06:25:14;18.90;99.90
17364;DHT22;8799;43.594;13.526;2023-03-23T06:27:43;18.90;99.90
17364;DHT22;8799;43.594;13.526;2023-03-23T06:30:12;18.90;99.90
17364;DHT22;8799;43.594;13.526;2023-03-23T06:32:41;18.90;99.90
17364;DHT22;8799;43.594;13.526;2023-03-23T06:35:11;18.90;99.90
17364;DHT22;8799;43.594;13.526;2023-03-23T06:37:40;18.90;99.90
17364;DHT22;8799;43.594;13.526;2023-03-23T06:40:08;18.90;99.90
17364;DHT22;8799;43.594;13.526;2023-03-23T06:42:38;18.90;99.90
17364;DHT22;8799;43.594;13.526;2023-03-23T06:45:07;18.80;99.90
17364;DHT22;8799;43.594;13.526;2023-03-23T06:47:35;18.90;99.90
17364;DHT22;8799;43.594;13.526;2023-03-23T06:50:03;18.90;99.90
17364;DHT22;8799;43.594;13.526;2023-03-23T06:52:31;18.90;99.90
17364;DHT22;8799;43.594;13.526;2023-03-23T06:54:59;18.80;99.90
17364;DHT22;8799;43.594;13.526;2023-03-23T06:57:27;18.80;99.90
17364;DHT22;8799;43.594;13.526;2023-03-23T06:59:57;18.80;99.90
17364;DHT22;8799;43.594;13.526;2023-03-23T07:02:25;18.80;99.90
17364;DHT22;8799;43.594;13.526;2023-03-23T07:04:52;18.80;99.90
17364;DHT22;8799;43.594;13.526;2023-03-23T07:07:21;18.80;99.90
17364;DHT22;8799;43.594;13.526;2023-03-23T07:09:49;18.80;99.90
17364;DHT22;8799;43.594;13.526;2023-03-23T07:12:16;18.80;99.90
17364;DHT22;8799;43.594;13.526;2023-03-23T07:14:45;18.80;99.90
17364;DHT22;8799;43.594;13.526;2023-03-23T07:17:15;18.80;99.90
17364;DHT22;8799;43.594;13.526;2023-03-23T07:19:44;18.80;99.90
17364;DHT22;8799;43.594;13.526;2023-03-23T07:22:11;18.80;99.90
17364;DHT22;8799;43.594;13.526;2023-03-23T07:24:39;18.80;99.90
17364;DHT22;8799;43.594;13.526;2023-03-23T07:27:07;18.80;99.90
17364;DHT22;8799;43.594;13.526;2023-03-23T07:29:34;18.80;99.90
17364;DHT22;8799;43.594;13.526;2023-03-23T07:32:05;18.80;99.90
17364;DHT22;8799;43.594;13.526;2023-03-23T07:34:35;18.80;99.90
17364;DHT22;8799;43.594;13.526;2023-03-23T07:37:03;18.80;99.90
17364;DHT22;8799;43.594;13.526;2023-03-23T07:39:31;18.80;99.90
17364;DHT22;8799;43.594;13.526;2023-03-23T07:41:58;18.80;99.90
17364;DHT22;8799;43.594;13.526;2023-03-23T07:44:27;18.80;99.90
17364;DHT22;8799;43.594;13.526;2023-03-23T07:46:54;18.80;99.90
17364;DHT22;8799;43.594;13.526;2023-03-23T07:49:26;18.80;99.90
17364;DHT22;8799;43.594;13.526;2023-03-23T07:51:57;18.80;99.90
17364;DHT22;8799;43.594;13.526;2023-03-23T07:54:27;18.80;99.90
17364;DHT22;8799;43.594;13.526;2023-03-23T07:56:55;18.80;99.90
17364;DHT22;8799;43.594;13.526;2023-03-23T07:59:23;18.80;99.90
17364;DHT22;8799;43.594;13.526;2023-03-23T08:01:50;18.80;99.90
17364;DHT22;8799;43.594;13.526;2023-03-23T08:04:18;18.80;99.90
17364;DHT22;8799;43.594;13.526;2023-03-23T08:06:46;18.80;99.90
17364;DHT22;8799;43.594;13.526;2023-03-23T08:09:15;18.80;99.90
17364;DHT22;8799;43.594;13.526;2023-03-23T08:11:44;18.80;99.90
17364;DHT22;8799;43.594;13.526;2023-03-23T08:14:13;18.80;99.90
17364;DHT22;8799;43.594;13.526;2023-03-23T08:16:41;18.80;99.90
17364;DHT22;8799;43.594;13.526;2023-03-23T08:19:08;18.80;99.90
17364;DHT22;8799;43.594;13.526;2023-03-23T08:21:37;18.80;99.90
17364;DHT22;8799;43.594;13.526;2023-03-23T08:24:05;18.80;99.90
17364;DHT22;8799;43.594;13.526;2023-03-23T08:26:35;18.80;99.90
17364;DHT22;8799;43.594;13.526;2023-03-23T08:29:03;18.80;99.90
17364;DHT22;8799;43.594;13.526;2023-03-23T08:31:31;18.80;99.90
17364;DHT22;8799;43.594;13.526;2023-03-23T08:34:00;18.80;99.90
17364;DHT22;8799;43.594;13.526;2023-03-23T08:36:31;18.80;99.90
17364;DHT22;8799;43.594;13.526;2023-03-23T08:39:00;18.80;99.90
17364;DHT22;8799;43.594;13.526;2023-03-23T08:41:28;18.80;99.90
17364;DHT22;8799;43.594;13.526;2023-03-23T08:43:57;18.80;99.90
17364;DHT22;8799;43.594;13.526;2023-03-23T08:46:25;18.80;99.90
17364;DHT22;8799;43.594;13.526;2023-03-23T08:48:54;18.80;99.90
17364;DHT22;8799;43.594;13.526;2023-03-23T08:51:22;18.80;99.90
17364;DHT22;8799;43.594;13.526;2023-03-23T08:53:49;18.80;99.90
17364;DHT22;8799;43.594;13.526;2023-03-23T08:56:18;18.80;99.90
17364;DHT22;8799;43.594;13.526;2023-03-23T08:58:46;18.80;99.90
17364;DHT22;8799;43.594;13.526;2023-03-23T09:01:16;18.80;99.90
17364;DHT22;8799;43.594;13.526;2023-03-23T09:03:44;18.80;99.90
17364;DHT22;8799;43.594;13.526;2023-03-23T09:06:12;18.80;99.90
17364;DHT22;8799;43.594;13.526;2023-03-23T09:08:40;18.80;99.90
17364;DHT22;8799;43.594;13.526;2023-03-23T09:11:09;18.80;99.90
17364;DHT22;8799;43.594;13.526;2023-03-23T09:13:38;18.80;99.90
17364;DHT22;8799;43.594;13.526;2023-03-23T09:16:07;18.80;99.90
17364;DHT22;8799;43.594;13.526;2023-03-23T09:18:37;18.80;99.90
17364;DHT22;8799;43.594;13.526;2023-03-23T09:21:05;18.80;99.90
17364;DHT22;8799;43.594;13.526;2023-03-23T09:23:33;18.80;99.90
17364;DHT22;8799;43.594;13.526;2023-03-23T09:26:02;18.80;99.90
17364;DHT22;8799;43.594;13.526;2023-03-23T09:28:30;18.80;99.90
17364;DHT22;8799;43.594;13.526;2023-03-23T09:31:03;18.80;99.90
17364;DHT22;8799;43.594;13.526;2023-03-23T09:33:30;18.80;99.90
17364;DHT22;8799;43.594;13.526;2023-03-23T09:36:02;18.80;99.90
17364;DHT22;8799;43.594;13.526;2023-03-23T09:38:30;18.80;99.90
17364;DHT22;8799;43.594;13.526;2023-03-23T09:41:04;18.80;99.90
17364;DHT22;8799;43.594;13.526;2023-03-23T09:43:47;18.80;99.90
17364;DHT22;8799;43.594;13.526;2023-03-23T09:46:35;18.80;99.90
17364;DHT22;8799;43.594;13.526;2023-03-23T09:49:10;18.90;99.90
17364;DHT22;8799;43.594;13.526;2023-03-23T09:51:44;18.80;99.90
17364;DHT22;8799;43.594;13.526;2023-03-23T09:54:18;18.80;99.90
17364;DHT22;8799;43.594;13.526;2023-03-23T09:56:48;18.80;99.90
17364;DHT22;8799;43.594;13.526;2023-03-23T09:59:21;18.90;99.90
17364;DHT22;8799;43.594;13.526;2023-03-23T10:01:52;18.80;99.90
17364;DHT22;8799;43.594;13.526;2023-03-23T10:04:34;18.90;99.90
17364;DHT22;8799;43.594;13.526;2023-03-23T10:07:10;18.90;99.90
17364;DHT22;8799;43.594;13.526;2023-03-23T10:09:38;18.90;99.90
17364;DHT22;8799;43.594;13.526;2023-03-23T10:12:14;18.90;99.90
17364;DHT22;8799;43.594;13.526;2023-03-23T10:14:57;18.90;99.90
17364;DHT22;8799;43.594;13.526;2023-03-23T10:17:28;18.90;99.90
17364;DHT22;8799;43.594;13.526;2023-03-23T10:20:16;18.90;99.90
17364;DHT22;8799;43.594;13.526;2023-03-23T10:22:52;18.90;99.90
17364;DHT22;8799;43.594;13.526;2023-03-23T10:25:23;18.90;99.90
17364;DHT22;8799;43.594;13.526;2023-03-23T10:27:57;18.90;99.90
17364;DHT22;8799;43.594;13.526;2023-03-23T10:30:29;18.90;99.90
17364;DHT22;8799;43.594;13.526;2023-03-23T10:33:01;18.90;99.90
17364;DHT22;8799;43.594;13.526;2023-03-23T10:35:33;18.90;99.90
17364;DHT22;8799;43.594;13.526;2023-03-23T10:38:06;18.90;99.90
17364;DHT22;8799;43.594;13.526;2023-03-23T10:40:47;18.90;99.90
17364;DHT22;8799;43.594;13.526;2023-03-23T10:43:16;18.90;99.90
17364;DHT22;8799;43.594;13.526;2023-03-23T10:45:47;18.90;99.90
17364;DHT22;8799;43.594;13.526;2023-03-23T10:48:20;18.90;99.90
17364;DHT22;8799;43.594;13.526;2023-03-23T10:50:52;18.90;99.90
17364;DHT22;8799;43.594;13.526;2023-03-23T10:53:25;18.90;99.90
17364;DHT22;8799;43.594;13.526;2023-03-23T10:55:55;18.90;99.90
17364;DHT22;8799;43.594;13.526;2023-03-23T10:58:26;18.90;99.90
17364;DHT22;8799;43.594;13.526;2023-03-23T11:00:56;18.90;99.90
17364;DHT22;8799;43.594;13.526;2023-03-23T11:03:37;18.90;99.90
17364;DHT22;8799;43.594;13.526;2023-03-23T11:06:07;18.90;99.90
17364;DHT22;8799;43.594;13.526;2023-03-23T11:08:47;18.90;99.90
17364;DHT22;8799;43.594;13.526;2023-03-23T11:11:17;18.90;99.90
17364;DHT22;8799;43.594;13.526;2023-03-23T11:13:47;18.90;99.90
17364;DHT22;8799;43.594;13.526;2023-03-23T11:16:25;18.90;99.90
17364;DHT22;8799;43.594;13.526;2023-03-23T11:18:54;18.90;99.90
17364;DHT22;8799;43.594;13.526;2023-03-23T11:21:23;18.90;99.90
17364;DHT22;8799;43.594;13.526;2023-03-23T11:23:56;18.90;99.90
17364;DHT22;8799;43.594;13.526;2023-03-23T11:26:28;18.90;99.90
17364;DHT22;8799;43.594;13.526;2023-03-23T11:28:58;18.90;99.90
17364;DHT22;8799;43.594;13.526;2023-03-23T11:31:29;18.90;99.90
17364;DHT22;8799;43.594;13.526;2023-03-23T11:34:01;18.90;99.90
17364;DHT22;8799;43.594;13.526;2023-03-23T11:36:33;18.90;99.90
17364;DHT22;8799;43.594;13.526;2023-03-23T11:39:03;18.90;99.90
17364;DHT22;8799;43.594;13.526;2023-03-23T11:41:45;18.90;99.90
17364;DHT22;8799;43.594;13.526;2023-03-23T11:44:13;18.90;99.90
17364;DHT22;8799;43.594;13.526;2023-03-23T11:46:51;19.00;99.90
17364;DHT22;8799;43.594;13.526;2023-03-23T11:49:32;18.90;99.90
17364;DHT22;8799;43.594;13.526;2023-03-23T11:52:09;18.90;99.90
17364;DHT22;8799;43.594;13.526;2023-03-23T11:54:44;18.90;99.90
17364;DHT22;8799;43.594;13.526;2023-03-23T11:57:14;19.00;99.90
17364;DHT22;8799;43.594;13.526;2023-03-23T11:59:41;18.90;99.90
17364;DHT22;8799;43.594;13.526;2023-03-23T12:02:33;18.90;99.90
17364;DHT22;8799;43.594;13.526;2023-03-23T12:05:29;19.00;99.90
17364;DHT22;8799;43.594;13.526;2023-03-23T12:08:08;18.90;99.90
17364;DHT22;8799;43.594;13.526;2023-03-23T12:10:46;18.90;99.90
17364;DHT22;8799;43.594;13.526;2023-03-23T12:13:40;18.90;99.90
17364;DHT22;8799;43.594;13.526;2023-03-23T12:16:22;18.90;99.90
17364;DHT22;8799;43.594;13.526;2023-03-23T12:19:00;19.00;99.90
17364;DHT22;8799;43.594;13.526;2023-03-23T12:21:38;18.90;99.90
17364;DHT22;8799;43.594;13.526;2023-03-23T12:24:21;18.90;99.90
17364;DHT22;8799;43.594;13.526;2023-03-23T12:27:00;19.00;99.90
17364;DHT22;8799;43.594;13.526;2023-03-23T12:29:51;19.00;99.90
17364;DHT22;8799;43.594;13.526;2023-03-23T12:32:43;18.90;99.90
17364;DHT22;8799;43.594;13.526;2023-03-23T12:35:22;19.00;99.90
17364;DHT22;8799;43.594;13.526;2023-03-23T12:38:02;18.90;99.90
17364;DHT22;8799;43.594;13.526;2023-03-23T12:40:44;18.90;99.90
17364;DHT22;8799;43.594;13.526;2023-03-23T12:43:23;18.90;99.90
17364;DHT22;8799;43.594;13.526;2023-03-23T12:46:07;18.90;99.90
17364;DHT22;8799;43.594;13.526;2023-03-23T12:48:40;19.00;99.90
17364;DHT22;8799;43.594;13.526;2023-03-23T12:51:19;18.90;99.90
17364;DHT22;8799;43.594;13.526;2023-03-23T12:53:54;18.90;99.90
17364;DHT22;8799;43.594;13.526;2023-03-23T12:56:28;18.90;99.90
17364;DHT22;8799;43.594;13.526;2023-03-23T12:59:05;18.90;99.90
17364;DHT22;8799;43.594;13.526;2023-03-23T13:01:40;18.90;99.90
17364;DHT22;8799;43.594;13.526;2023-03-23T13:04:11;18.90;99.90
17364;DHT22;8799;43.594;13.526;2023-03-23T13:06:42;18.90;99.90
17364;DHT22;8799;43.594;13.526;2023-03-23T13:09:12;18.90;99.90
17364;DHT22;8799;43.594;13.526;2023-03-23T13:11:43;18.90;99.90
17364;DHT22;8799;43.594;13.526;2023-03-23T13:14:27;18.90;99.90
17364;DHT22;8799;43.594;13.526;2023-03-23T13:17:03;18.90;99.90
17364;DHT22;8799;43.594;13.526;2023-03-23T13:19:54;18.90;99.90
17364;DHT22;8799;43.594;13.526;2023-03-23T13:22:31;18.90;99.90
17364;DHT22;8799;43.594;13.526;2023-03-23T13:25:03;18.90;99.90
17364;DHT22;8799;43.594;13.526;2023-03-23T13:27:34;18.90;99.90
17364;DHT22;8799;43.594;13.526;2023-03-23T13:30:05;18.90;99.90
17364;DHT22;8799;43.594;13.526;2023-03-23T13:32:47;18.90;99.90
17364;DHT22;8799;43.594;13.526;2023-03-23T13:35:17;18.90;99.90
17364;DHT22;8799;43.594;13.526;2023-03-23T13:37:49;18.90;99.90
17364;DHT22;8799;43.594;13.526;2023-03-23T13:40:25;18.90;99.90
17364;DHT22;8799;43.594;13.526;2023-03-23T13:42:55;18.90;99.90
17364;DHT22;8799;43.594;13.526;2023-03-23T13:45:42;18.90;99.90
17364;DHT22;8799;43.594;13.526;2023-03-23T13:48:19;18.90;99.90
17364;DHT22;8799;43.594;13.526;2023-03-23T13:50:54;18.90;99.90
17364;DHT22;8799;43.594;13.526;2023-03-23T13:53:25;18.90;99.90
17364;DHT22;8799;43.594;13.526;2023-03-23T13:56:06;18.90;99.90
17364;DHT22;8799;43.594;13.526;2023-03-23T13:58:45;18.90;99.90
17364;DHT22;8799;43.594;13.526;2023-03-23T14:01:18;18.80;99.90
17364;DHT22;8799;43.594;13.526;2023-03-23T14:03:48;18.80;99.90
17364;DHT22;8799;43.594;13.526;2023-03-23T14:06:20;18.80;99.90
17364;DHT22;8799;43.594;13.526;2023-03-23T14:08:52;18.80;99.90
17364;DHT22;8799;43.594;13.526;2023-03-23T14:11:24;18.80;99.90
17364;DHT22;8799;43.594;13.526;2023-03-23T14:14:01;18.80;99.90
17364;DHT22;8799;43.594;13.526;2023-03-23T14:16:38;18.80;99.90
17364;DHT22;8799;43.594;13.526;2023-03-23T14:19:19;18.80;99.90
17364;DHT22;8799;43.594;13.526;2023-03-23T14:21:50;18.80;99.90
17364;DHT22;8799;43.594;13.526;2023-03-23T14:24:21;18.80;99.90
17364;DHT22;8799;43.594;13.526;2023-03-23T14:26:50;18.80;99.90
17364;DHT22;8799;43.594;13.526;2023-03-23T14:29:20;18.80;99.90
17364;DHT22;8799;43.594;13.526;2023-03-23T14:31:54;18.80;99.90
17364;DHT22;8799;43.594;13.526;2023-03-23T14:34:25;18.80;99.90
17364;DHT22;8799;43.594;13.526;2023-03-23T14:36:54;18.80;99.90
17364;DHT22;8799;43.594;13.526;2023-03-23T14:39:24;18.80;99.90
17364;DHT22;8799;43.594;13.526;2023-03-23T14:41:55;18.70;99.90
17364;DHT22;8799;43.594;13.526;2023-03-23T14:44:26;18.70;99.90
17364;DHT22;8799;43.594;13.526;2023-03-23T14:47:00;18.70;99.90
17364;DHT22;8799;43.594;13.526;2023-03-23T14:49:31;18.70;99.90
17364;DHT22;8799;43.594;13.526;2023-03-23T14:52:03;18.70;99.90
17364;DHT22;8799;43.594;13.526;2023-03-23T14:54:36;18.70;99.90
17364;DHT22;8799;43.594;13.526;2023-03-23T14:57:12;18.70;99.90
17364;DHT22;8799;43.594;13.526;2023-03-23T14:59:41;18.70;99.90
17364;DHT22;8799;43.594;13.526;2023-03-23T15:02:28;18.70;99.90
17364;DHT22;8799;43.594;13.526;2023-03-23T15:05:01;18.70;99.90
17364;DHT22;8799;43.594;13.526;2023-03-23T15:07:34;18.70;99.90
17364;DHT22;8799;43.594;13.526;2023-03-23T15:10:05;18.70;99.90
17364;DHT22;8799;43.594;13.526;2023-03-23T15:12:35;18.80;99.90
17364;DHT22;8799;43.594;13.526;2023-03-23T15:15:04;18.80;99.90
17364;DHT22;8799;43.594;13.526;2023-03-23T15:17:36;18.80;99.90
17364;DHT22;8799;43.594;13.526;2023-03-23T15:20:09;18.80;99.90
17364;DHT22;8799;43.594;13.526;2023-03-23T15:22:45;18.80;99.90
17364;DHT22;8799;43.594;13.526;2023-03-23T15:25:19;18.80;99.90
17364;DHT22;8799;43.594;13.526;2023-03-23T15:27:52;18.80;99.90
17364;DHT22;8799;43.594;13.526;2023-03-23T15:30:30;18.80;99.90
17364;DHT22;8799;43.594;13.526;2023-03-23T15:33:06;18.80;99.90
17364;DHT22;8799;43.594;13.526;2023-03-23T15:35:39;18.80;99.90
17364;DHT22;8799;43.594;13.526;2023-03-23T15:38:19;18.80;99.90
17364;DHT22;8799;43.594;13.526;2023-03-23T15:40:49;18.80;99.90
17364;DHT22;8799;43.594;13.526;2023-03-23T15:43:20;18.80;99.90
17364;DHT22;8799;43.594;13.526;2023-03-23T15:45:57;18.80;99.90
17364;DHT22;8799;43.594;13.526;2023-03-23T15:48:32;18.80;99.90
17364;DHT22;8799;43.594;13.526;2023-03-23T15:51:02;18.80;99.90
17364;DHT22;8799;43.594;13.526;2023-03-23T15:53:32;18.80;99.90
17364;DHT22;8799;43.594;13.526;2023-03-23T15:56:02;18.80;99.90
17364;DHT22;8799;43.594;13.526;2023-03-23T15:58:30;18.70;99.90
17364;DHT22;8799;43.594;13.526;2023-03-23T16:00:59;18.70;99.90
17364;DHT22;8799;43.594;13.526;2023-03-23T16:03:33;18.70;99.90
17364;DHT22;8799;43.594;13.526;2023-03-23T16:06:02;18.70;99.90
17364;DHT22;8799;43.594;13.526;2023-03-23T16:08:30;18.70;99.90